sensor_id;sensor_type;location;lat;lon;timestamp;P1;durP1;ratioP1;P2;durP2;ratioP2
18917;SDS011;9591;52.742;13.650;2022-09-17T00:00:10;1.67;;;1.23;;
18917;SDS011;9591;52.742;13.650;2022-09-17T00:02:57;2.93;;;1.30;;
18917;SDS011;9591;52.742;13.650;2022-09-17T00:05:44;1.27;;;1.17;;
18917;SDS011;9591;52.742;13.650;2022-09-17T00:08:31;1.27;;;1.07;;
18917;SDS011;9591;52.742;13.650;2022-09-17T00:11:20;4.30;;;1.50;;
18917;SDS011;9591;52.742;13.650;2022-09-17T00:14:11;2.00;;;1.20;;
18917;SDS011;9591;52.742;13.650;2022-09-17T00:17:01;3.47;;;1.27;;
18917;SDS011;9591;52.742;13.650;2022-09-17T00:19:48;1.37;;;1.27;;
18917;SDS011;9591;52.742;13.650;2022-09-17T00:22:35;2.13;;;1.67;;
18917;SDS011;9591;52.742;13.650;2022-09-17T00:25:21;1.80;;;1.70;;
18917;SDS011;9591;52.742;13.650;2022-09-17T00:28:09;2.73;;;1.40;;
18917;SDS011;9591;52.742;13.650;2022-09-17T00:30:57;5.57;;;1.30;;
18917;SDS011;9591;52.742;13.650;2022-09-17T00:33:45;2.10;;;1.43;;
18917;SDS011;9591;52.742;13.650;2022-09-17T00:36:33;1.33;;;1.27;;
18917;SDS011;9591;52.742;13.650;2022-09-17T00:39:20;4.30;;;1.30;;
18917;SDS011;9591;52.742;13.650;2022-09-17T00:42:08;3.90;;;1.20;;
18917;SDS011;9591;52.742;13.650;2022-09-17T00:44:55;1.63;;;1.30;;
18917;SDS011;9591;52.742;13.650;2022-09-17T00:47:44;2.70;;;1.73;;
18917;SDS011;9591;52.742;13.650;2022-09-17T00:50:36;3.13;;;1.80;;
18917;SDS011;9591;52.742;13.650;2022-09-17T00:53:25;3.40;;;1.60;;
18917;SDS011;9591;52.742;13.650;2022-09-17T00:56:13;2.80;;;1.70;;
18917;SDS011;9591;52.742;13.650;2022-09-17T00:59:07;3.43;;;2.10;;
18917;SDS011;9591;52.742;13.650;2022-09-17T01:01:54;3.53;;;2.00;;
18917;SDS011;9591;52.742;13.650;2022-09-17T01:04:41;6.17;;;1.90;;
18917;SDS011;9591;52.742;13.650;2022-09-17T01:07:34;4.83;;;2.10;;
18917;SDS011;9591;52.742;13.650;2022-09-17T01:10:40;4.40;;;2.03;;
18917;SDS011;9591;52.742;13.650;2022-09-17T01:13:50;6.87;;;2.37;;
18917;SDS011;9591;52.742;13.650;2022-09-17T01:16:50;5.67;;;1.93;;
18917;SDS011;9591;52.742;13.650;2022-09-17T01:19:51;5.80;;;2.33;;
18917;SDS011;9591;52.742;13.650;2022-09-17T01:23:02;6.87;;;2.60;;
18917;SDS011;9591;52.742;13.650;2022-09-17T01:26:14;5.30;;;2.93;;
18917;SDS011;9591;52.742;13.650;2022-09-17T01:29:14;8.60;;;3.30;;
18917;SDS011;9591;52.742;13.650;2022-09-17T01:32:18;5.10;;;2.80;;
18917;SDS011;9591;52.742;13.650;2022-09-17T01:35:13;6.10;;;3.60;;
18917;SDS011;9591;52.742;13.650;2022-09-17T01:38:06;10.97;;;3.90;;
18917;SDS011;9591;52.742;13.650;2022-09-17T01:40:59;7.33;;;3.23;;
18917;SDS011;9591;52.742;13.650;2022-09-17T01:43:53;5.60;;;3.40;;
18917;SDS011;9591;52.742;13.650;2022-09-17T01:46:44;12.17;;;3.73;;
18917;SDS011;9591;52.742;13.650;2022-09-17T01:49:36;7.07;;;3.53;;
18917;SDS011;9591;52.742;13.650;2022-09-17T01:52:25;13.57;;;3.77;;
18917;SDS011;9591;52.742;13.650;2022-09-17T01:55:15;9.70;;;3.47;;
18917;SDS011;9591;52.742;13.650;2022-09-17T01:58:04;9.43;;;3.47;;
18917;SDS011;9591;52.742;13.650;2022-09-17T02:00:56;9.03;;;3.53;;
18917;SDS011;9591;52.742;13.650;2022-09-17T02:03:47;7.60;;;3.53;;
18917;SDS011;9591;52.742;13.650;2022-09-17T02:06:42;15.73;;;3.93;;
18917;SDS011;9591;52.742;13.650;2022-09-17T02:09:34;8.70;;;3.37;;
18917;SDS011;9591;52.742;13.650;2022-09-17T02:12:27;10.83;;;4.07;;
18917;SDS011;9591;52.742;13.650;2022-09-17T02:15:19;6.47;;;3.23;;
18917;SDS011;9591;52.742;13.650;2022-09-17T02:18:10;8.00;;;3.30;;
18917;SDS011;9591;52.742;13.650;2022-09-17T02:21:05;6.60;;;3.20;;
18917;SDS011;9591;52.742;13.650;2022-09-17T02:24:00;10.77;;;3.40;;
18917;SDS011;9591;52.742;13.650;2022-09-17T02:26:57;10.17;;;3.33;;
18917;SDS011;9591;52.742;13.650;2022-09-17T02:29:50;9.50;;;3.60;;
18917;SDS011;9591;52.742;13.650;2022-09-17T02:32:41;9.30;;;3.63;;
18917;SDS011;9591;52.742;13.650;2022-09-17T02:35:30;13.97;;;3.23;;
18917;SDS011;9591;52.742;13.650;2022-09-17T02:38:21;6.30;;;3.10;;
18917;SDS011;9591;52.742;13.650;2022-09-17T02:41:13;7.03;;;3.10;;
18917;SDS011;9591;52.742;13.650;2022-09-17T02:44:06;16.80;;;3.40;;
18917;SDS011;9591;52.742;13.650;2022-09-17T02:47:04;9.40;;;4.07;;
18917;SDS011;9591;52.742;13.650;2022-09-17T02:50:14;6.50;;;3.03;;
18917;SDS011;9591;52.742;13.650;2022-09-17T02:53:15;6.53;;;3.20;;
18917;SDS011;9591;52.742;13.650;2022-09-17T02:56:12;9.30;;;3.00;;
18917;SDS011;9591;52.742;13.650;2022-09-17T02:59:07;5.23;;;2.83;;
18917;SDS011;9591;52.742;13.650;2022-09-17T03:02:04;10.63;;;3.23;;
18917;SDS011;9591;52.742;13.650;2022-09-17T03:04:57;6.83;;;2.87;;
18917;SDS011;9591;52.742;13.650;2022-09-17T03:07:46;3.93;;;2.77;;
18917;SDS011;9591;52.742;13.650;2022-09-17T03:10:33;8.77;;;2.90;;
18917;SDS011;9591;52.742;13.650;2022-09-17T03:13:21;5.80;;;2.47;;
18917;SDS011;9591;52.742;13.650;2022-09-17T03:16:08;4.17;;;2.20;;
18917;SDS011;9591;52.742;13.650;2022-09-17T03:18:55;6.97;;;3.13;;
18917;SDS011;9591;52.742;13.650;2022-09-17T03:21:42;5.00;;;2.70;;
18917;SDS011;9591;52.742;13.650;2022-09-17T03:24:29;5.87;;;2.70;;
18917;SDS011;9591;52.742;13.650;2022-09-17T03:27:15;6.23;;;2.30;;
18917;SDS011;9591;52.742;13.650;2022-09-17T03:30:04;6.27;;;2.60;;
18917;SDS011;9591;52.742;13.650;2022-09-17T03:32:51;8.83;;;2.53;;
18917;SDS011;9591;52.742;13.650;2022-09-17T03:35:41;10.67;;;2.97;;
18917;SDS011;9591;52.742;13.650;2022-09-17T03:38:28;8.90;;;2.87;;
18917;SDS011;9591;52.742;13.650;2022-09-17T03:41:15;4.97;;;2.63;;
18917;SDS011;9591;52.742;13.650;2022-09-17T03:44:01;8.93;;;3.53;;
18917;SDS011;9591;52.742;13.650;2022-09-17T03:46:49;9.20;;;2.60;;
18917;SDS011;9591;52.742;13.650;2022-09-17T03:49:36;6.20;;;2.90;;
18917;SDS011;9591;52.742;13.650;2022-09-17T03:52:23;15.90;;;3.10;;
18917;SDS011;9591;52.742;13.650;2022-09-17T03:55:10;8.47;;;3.20;;
18917;SDS011;9591;52.742;13.650;2022-09-17T03:57:57;7.90;;;2.90;;
18917;SDS011;9591;52.742;13.650;2022-09-17T04:00:44;11.53;;;3.03;;
18917;SDS011;9591;52.742;13.650;2022-09-17T04:03:41;11.33;;;2.97;;
18917;SDS011;9591;52.742;13.650;2022-09-17T04:06:29;6.97;;;2.70;;
18917;SDS011;9591;52.742;13.650;2022-09-17T04:09:16;9.90;;;2.80;;
18917;SDS011;9591;52.742;13.650;2022-09-17T04:12:03;9.27;;;3.63;;
18917;SDS011;9591;52.742;13.650;2022-09-17T04:14:49;9.20;;;2.90;;
18917;SDS011;9591;52.742;13.650;2022-09-17T04:17:36;6.13;;;2.77;;
18917;SDS011;9591;52.742;13.650;2022-09-17T04:20:24;7.47;;;2.93;;
18917;SDS011;9591;52.742;13.650;2022-09-17T04:23:12;5.87;;;2.53;;
18917;SDS011;9591;52.742;13.650;2022-09-17T04:25:59;4.33;;;2.33;;
18917;SDS011;9591;52.742;13.650;2022-09-17T04:28:46;13.50;;;2.70;;
18917;SDS011;9591;52.742;13.650;2022-09-17T04:31:33;5.80;;;2.10;;
18917;SDS011;9591;52.742;13.650;2022-09-17T04:34:19;6.23;;;3.27;;
18917;SDS011;9591;52.742;13.650;2022-09-17T04:37:08;4.70;;;2.30;;
18917;SDS011;9591;52.742;13.650;2022-09-17T04:39:54;3.50;;;2.03;;
18917;SDS011;9591;52.742;13.650;2022-09-17T04:42:41;8.30;;;2.27;;
18917;SDS011;9591;52.742;13.650;2022-09-17T04:45:28;5.57;;;2.70;;
18917;SDS011;9591;52.742;13.650;2022-09-17T04:48:17;7.33;;;2.60;;
18917;SDS011;9591;52.742;13.650;2022-09-17T04:51:04;7.60;;;2.77;;
18917;SDS011;9591;52.742;13.650;2022-09-17T04:53:52;8.03;;;2.93;;
18917;SDS011;9591;52.742;13.650;2022-09-17T04:56:39;5.93;;;3.03;;
18917;SDS011;9591;52.742;13.650;2022-09-17T04:59:26;13.90;;;3.27;;
18917;SDS011;9591;52.742;13.650;2022-09-17T05:02:13;8.87;;;2.83;;
18917;SDS011;9591;52.742;13.650;2022-09-17T05:04:59;8.13;;;2.60;;
18917;SDS011;9591;52.742;13.650;2022-09-17T05:07:46;7.83;;;3.10;;
18917;SDS011;9591;52.742;13.650;2022-09-17T05:10:34;15.00;;;2.63;;
18917;SDS011;9591;52.742;13.650;2022-09-17T05:13:21;7.27;;;3.10;;
18917;SDS011;9591;52.742;13.650;2022-09-17T05:16:08;12.17;;;3.23;;
18917;SDS011;9591;52.742;13.650;2022-09-17T05:18:55;12.07;;;2.87;;
18917;SDS011;9591;52.742;13.650;2022-09-17T05:21:41;8.73;;;2.90;;
18917;SDS011;9591;52.742;13.650;2022-09-17T05:24:28;10.27;;;2.70;;
18917;SDS011;9591;52.742;13.650;2022-09-17T05:27:16;16.37;;;2.90;;
18917;SDS011;9591;52.742;13.650;2022-09-17T05:30:04;6.00;;;2.80;;
18917;SDS011;9591;52.742;13.650;2022-09-17T05:32:57;14.20;;;2.77;;
18917;SDS011;9591;52.742;13.650;2022-09-17T05:35:45;8.50;;;3.50;;
18917;SDS011;9591;52.742;13.650;2022-09-17T05:38:31;12.67;;;2.70;;
18917;SDS011;9591;52.742;13.650;2022-09-17T05:41:18;9.93;;;2.90;;
18917;SDS011;9591;52.742;13.650;2022-09-17T05:44:06;7.30;;;2.60;;
18917;SDS011;9591;52.742;13.650;2022-09-17T05:46:54;6.73;;;2.73;;
18917;SDS011;9591;52.742;13.650;2022-09-17T05:49:40;9.77;;;2.97;;
18917;SDS011;9591;52.742;13.650;2022-09-17T05:52:27;11.53;;;3.47;;
18917;SDS011;9591;52.742;13.650;2022-09-17T05:55:14;12.27;;;2.80;;
18917;SDS011;9591;52.742;13.650;2022-09-17T05:58:07;13.87;;;3.13;;
18917;SDS011;9591;52.742;13.650;2022-09-17T06:00:59;11.00;;;2.57;;
18917;SDS011;9591;52.742;13.650;2022-09-17T06:03:45;10.37;;;2.93;;
18917;SDS011;9591;52.742;13.650;2022-09-17T06:06:32;9.30;;;2.67;;
18917;SDS011;9591;52.742;13.650;2022-09-17T06:09:20;9.53;;;2.83;;
18917;SDS011;9591;52.742;13.650;2022-09-17T06:12:07;9.40;;;3.30;;
18917;SDS011;9591;52.742;13.650;2022-09-17T06:14:54;13.00;;;3.40;;
18917;SDS011;9591;52.742;13.650;2022-09-17T06:17:42;13.20;;;3.37;;
18917;SDS011;9591;52.742;13.650;2022-09-17T06:20:29;11.67;;;2.97;;
18917;SDS011;9591;52.742;13.650;2022-09-17T06:23:16;9.90;;;2.53;;
18917;SDS011;9591;52.742;13.650;2022-09-17T06:26:04;11.23;;;3.37;;
18917;SDS011;9591;52.742;13.650;2022-09-17T06:28:51;7.33;;;2.60;;
18917;SDS011;9591;52.742;13.650;2022-09-17T06:31:38;15.77;;;3.40;;
18917;SDS011;9591;52.742;13.650;2022-09-17T06:34:26;11.83;;;2.80;;
18917;SDS011;9591;52.742;13.650;2022-09-17T06:37:14;10.57;;;2.97;;
18917;SDS011;9591;52.742;13.650;2022-09-17T06:40:05;19.57;;;3.00;;
18917;SDS011;9591;52.742;13.650;2022-09-17T06:42:55;15.60;;;2.70;;
18917;SDS011;9591;52.742;13.650;2022-09-17T06:45:42;15.57;;;3.20;;
18917;SDS011;9591;52.742;13.650;2022-09-17T06:48:32;12.60;;;2.90;;
18917;SDS011;9591;52.742;13.650;2022-09-17T06:51:21;16.23;;;4.00;;
18917;SDS011;9591;52.742;13.650;2022-09-17T06:54:08;9.20;;;2.80;;
18917;SDS011;9591;52.742;13.650;2022-09-17T06:56:55;14.17;;;3.27;;
18917;SDS011;9591;52.742;13.650;2022-09-17T06:59:41;8.23;;;2.60;;
18917;SDS011;9591;52.742;13.650;2022-09-17T07:02:28;11.47;;;2.60;;
18917;SDS011;9591;52.742;13.650;2022-09-17T07:05:15;14.73;;;2.70;;
18917;SDS011;9591;52.742;13.650;2022-09-17T07:08:03;11.70;;;2.67;;
18917;SDS011;9591;52.742;13.650;2022-09-17T07:10:50;16.30;;;2.90;;
18917;SDS011;9591;52.742;13.650;2022-09-17T07:13:40;9.23;;;2.80;;
18917;SDS011;9591;52.742;13.650;2022-09-17T07:16:27;10.93;;;2.60;;
18917;SDS011;9591;52.742;13.650;2022-09-17T07:19:16;13.83;;;2.80;;
18917;SDS011;9591;52.742;13.650;2022-09-17T07:22:03;12.33;;;2.77;;
18917;SDS011;9591;52.742;13.650;2022-09-17T07:24:51;13.00;;;2.87;;
18917;SDS011;9591;52.742;13.650;2022-09-17T07:27:38;10.50;;;3.27;;
18917;SDS011;9591;52.742;13.650;2022-09-17T07:30:25;11.83;;;3.00;;
18917;SDS011;9591;52.742;13.650;2022-09-17T07:33:13;10.30;;;2.60;;
18917;SDS011;9591;52.742;13.650;2022-09-17T07:36:01;12.80;;;3.47;;
18917;SDS011;9591;52.742;13.650;2022-09-17T07:38:49;13.47;;;3.03;;
18917;SDS011;9591;52.742;13.650;2022-09-17T07:41:37;10.27;;;2.80;;
18917;SDS011;9591;52.742;13.650;2022-09-17T07:44:24;10.07;;;2.97;;
18917;SDS011;9591;52.742;13.650;2022-09-17T07:47:11;16.07;;;3.80;;
18917;SDS011;9591;52.742;13.650;2022-09-17T07:49:57;9.17;;;2.47;;
18917;SDS011;9591;52.742;13.650;2022-09-17T07:52:45;16.93;;;2.90;;
18917;SDS011;9591;52.742;13.650;2022-09-17T07:55:32;8.87;;;2.33;;
18917;SDS011;9591;52.742;13.650;2022-09-17T07:58:21;17.20;;;2.70;;
18917;SDS011;9591;52.742;13.650;2022-09-17T08:01:09;17.70;;;2.63;;
18917;SDS011;9591;52.742;13.650;2022-09-17T08:03:57;10.57;;;2.67;;
18917;SDS011;9591;52.742;13.650;2022-09-17T08:06:44;11.43;;;2.53;;
18917;SDS011;9591;52.742;13.650;2022-09-17T08:09:32;10.57;;;3.03;;
18917;SDS011;9591;52.742;13.650;2022-09-17T08:12:19;8.77;;;2.33;;
18917;SDS011;9591;52.742;13.650;2022-09-17T08:15:08;13.80;;;2.60;;
18917;SDS011;9591;52.742;13.650;2022-09-17T08:17:56;12.03;;;2.57;;
18917;SDS011;9591;52.742;13.650;2022-09-17T08:20:42;16.10;;;2.70;;
18917;SDS011;9591;52.742;13.650;2022-09-17T08:23:30;17.73;;;2.50;;
18917;SDS011;9591;52.742;13.650;2022-09-17T08:26:20;9.30;;;2.87;;
18917;SDS011;9591;52.742;13.650;2022-09-17T08:29:08;17.03;;;3.23;;
18917;SDS011;9591;52.742;13.650;2022-09-17T08:31:56;10.90;;;2.00;;
18917;SDS011;9591;52.742;13.650;2022-09-17T08:34:43;11.97;;;2.50;;
18917;SDS011;9591;52.742;13.650;2022-09-17T08:37:30;12.13;;;2.00;;
18917;SDS011;9591;52.742;13.650;2022-09-17T08:40:18;10.17;;;2.33;;
18917;SDS011;9591;52.742;13.650;2022-09-17T08:43:08;14.47;;;2.70;;
18917;SDS011;9591;52.742;13.650;2022-09-17T08:46:01;15.97;;;2.87;;
18917;SDS011;9591;52.742;13.650;2022-09-17T08:48:50;13.13;;;2.70;;
18917;SDS011;9591;52.742;13.650;2022-09-17T08:51:41;14.67;;;2.63;;
18917;SDS011;9591;52.742;13.650;2022-09-17T08:54:40;11.83;;;2.30;;
18917;SDS011;9591;52.742;13.650;2022-09-17T08:57:32;14.77;;;2.40;;
18917;SDS011;9591;52.742;13.650;2022-09-17T09:00:28;10.63;;;2.43;;
18917;SDS011;9591;52.742;13.650;2022-09-17T09:03:24;12.40;;;1.77;;
18917;SDS011;9591;52.742;13.650;2022-09-17T09:06:20;13.73;;;3.20;;
18917;SDS011;9591;52.742;13.650;2022-09-17T09:09:13;10.60;;;2.43;;
18917;SDS011;9591;52.742;13.650;2022-09-17T09:12:02;12.10;;;2.70;;
18917;SDS011;9591;52.742;13.650;2022-09-17T09:14:53;10.50;;;1.87;;
18917;SDS011;9591;52.742;13.650;2022-09-17T09:17:43;12.00;;;2.83;;
18917;SDS011;9591;52.742;13.650;2022-09-17T09:20:35;9.00;;;1.93;;
18917;SDS011;9591;52.742;13.650;2022-09-17T09:23:30;13.27;;;2.03;;
18917;SDS011;9591;52.742;13.650;2022-09-17T09:26:33;10.07;;;3.07;;
18917;SDS011;9591;52.742;13.650;2022-09-17T09:29:32;11.70;;;2.50;;
18917;SDS011;9591;52.742;13.650;2022-09-17T09:32:30;15.67;;;2.33;;
18917;SDS011;9591;52.742;13.650;2022-09-17T09:35:30;9.07;;;1.50;;
18917;SDS011;9591;52.742;13.650;2022-09-17T09:38:23;5.80;;;1.73;;
18917;SDS011;9591;52.742;13.650;2022-09-17T09:41:18;9.70;;;2.10;;
18917;SDS011;9591;52.742;13.650;2022-09-17T09:44:12;7.27;;;1.83;;
18917;SDS011;9591;52.742;13.650;2022-09-17T09:47:03;13.07;;;2.63;;
18917;SDS011;9591;52.742;13.650;2022-09-17T09:50:04;14.77;;;2.80;;
18917;SDS011;9591;52.742;13.650;2022-09-17T09:53:02;10.10;;;2.00;;
18917;SDS011;9591;52.742;13.650;2022-09-17T09:56:05;11.27;;;2.00;;
18917;SDS011;9591;52.742;13.650;2022-09-17T09:59:10;9.37;;;1.70;;
18917;SDS011;9591;52.742;13.650;2022-09-17T10:01:57;10.80;;;2.23;;
18917;SDS011;9591;52.742;13.650;2022-09-17T10:04:44;7.53;;;1.97;;
18917;SDS011;9591;52.742;13.650;2022-09-17T10:07:41;8.27;;;1.77;;
18917;SDS011;9591;52.742;13.650;2022-09-17T10:10:28;12.73;;;1.97;;
18917;SDS011;9591;52.742;13.650;2022-09-17T10:13:16;6.90;;;2.27;;
18917;SDS011;9591;52.742;13.650;2022-09-17T10:16:15;10.03;;;2.00;;
18917;SDS011;9591;52.742;13.650;2022-09-17T10:19:10;7.40;;;1.53;;
18917;SDS011;9591;52.742;13.650;2022-09-17T10:21:59;7.03;;;1.30;;
18917;SDS011;9591;52.742;13.650;2022-09-17T10:25:11;9.33;;;2.40;;
18917;SDS011;9591;52.742;13.650;2022-09-17T10:28:22;13.83;;;1.80;;
18917;SDS011;9591;52.742;13.650;2022-09-17T10:31:15;11.40;;;1.90;;
18917;SDS011;9591;52.742;13.650;2022-09-17T10:34:01;7.77;;;1.63;;
18917;SDS011;9591;52.742;13.650;2022-09-17T10:36:49;13.53;;;1.63;;
18917;SDS011;9591;52.742;13.650;2022-09-17T10:39:37;14.37;;;2.20;;
18917;SDS011;9591;52.742;13.650;2022-09-17T10:42:28;11.83;;;1.70;;
18917;SDS011;9591;52.742;13.650;2022-09-17T10:45:22;9.33;;;1.77;;
18917;SDS011;9591;52.742;13.650;2022-09-17T10:48:12;8.90;;;2.33;;
18917;SDS011;9591;52.742;13.650;2022-09-17T10:51:02;8.77;;;1.70;;
18917;SDS011;9591;52.742;13.650;2022-09-17T10:53:59;14.67;;;1.97;;
18917;SDS011;9591;52.742;13.650;2022-09-17T10:56:56;9.50;;;2.10;;
18917;SDS011;9591;52.742;13.650;2022-09-17T10:59:57;6.23;;;1.60;;
18917;SDS011;9591;52.742;13.650;2022-09-17T11:03:05;14.23;;;1.80;;
18917;SDS011;9591;52.742;13.650;2022-09-17T11:06:06;9.33;;;1.60;;
18917;SDS011;9591;52.742;13.650;2022-09-17T11:09:13;6.07;;;1.70;;
18917;SDS011;9591;52.742;13.650;2022-09-17T11:12:14;6.40;;;1.93;;
18917;SDS011;9591;52.742;13.650;2022-09-17T11:15:30;15.93;;;1.97;;
18917;SDS011;9591;52.742;13.650;2022-09-17T11:18:39;11.83;;;1.70;;
18917;SDS011;9591;52.742;13.650;2022-09-17T11:21:38;9.77;;;1.77;;
18917;SDS011;9591;52.742;13.650;2022-09-17T11:24:32;10.43;;;1.60;;
18917;SDS011;9591;52.742;13.650;2022-09-17T11:27:39;15.60;;;1.80;;
18917;SDS011;9591;52.742;13.650;2022-09-17T11:30:35;7.03;;;1.53;;
18917;SDS011;9591;52.742;13.650;2022-09-17T11:33:48;5.93;;;1.40;;
18917;SDS011;9591;52.742;13.650;2022-09-17T11:36:47;7.83;;;1.70;;
18917;SDS011;9591;52.742;13.650;2022-09-17T11:39:40;8.63;;;1.60;;
18917;SDS011;9591;52.742;13.650;2022-09-17T11:42:40;12.73;;;1.87;;
18917;SDS011;9591;52.742;13.650;2022-09-17T11:45:32;5.80;;;1.53;;
18917;SDS011;9591;52.742;13.650;2022-09-17T11:48:24;11.27;;;1.90;;
18917;SDS011;9591;52.742;13.650;2022-09-17T11:51:26;2.50;;;1.87;;
18917;SDS011;9591;52.742;13.650;2022-09-17T11:54:18;11.17;;;2.20;;
18917;SDS011;9591;52.742;13.650;2022-09-17T11:57:10;6.87;;;1.77;;
18917;SDS011;9591;52.742;13.650;2022-09-17T12:00:02;6.30;;;1.73;;
18917;SDS011;9591;52.742;13.650;2022-09-17T12:03:03;6.50;;;1.47;;
18917;SDS011;9591;52.742;13.650;2022-09-17T12:05:57;10.23;;;2.07;;
18917;SDS011;9591;52.742;13.650;2022-09-17T12:08:52;6.17;;;1.60;;
18917;SDS011;9591;52.742;13.650;2022-09-17T12:11:44;7.50;;;1.77;;
18917;SDS011;9591;52.742;13.650;2022-09-17T12:14:38;8.50;;;2.30;;
18917;SDS011;9591;52.742;13.650;2022-09-17T12:17:33;7.97;;;1.70;;
18917;SDS011;9591;52.742;13.650;2022-09-17T12:20:26;3.90;;;1.10;;
18917;SDS011;9591;52.742;13.650;2022-09-17T12:23:21;5.90;;;1.63;;
18917;SDS011;9591;52.742;13.650;2022-09-17T12:26:23;6.70;;;1.50;;
18917;SDS011;9591;52.742;13.650;2022-09-17T12:29:23;5.93;;;1.10;;
18917;SDS011;9591;52.742;13.650;2022-09-17T12:32:30;4.23;;;1.23;;
18917;SDS011;9591;52.742;13.650;2022-09-17T12:35:46;3.80;;;1.03;;
18917;SDS011;9591;52.742;13.650;2022-09-17T12:38:57;6.93;;;1.10;;
18917;SDS011;9591;52.742;13.650;2022-09-17T12:41:57;7.03;;;1.37;;
18917;SDS011;9591;52.742;13.650;2022-09-17T12:44:57;4.80;;;1.30;;
18917;SDS011;9591;52.742;13.650;2022-09-17T12:47:56;3.87;;;1.10;;
18917;SDS011;9591;52.742;13.650;2022-09-17T12:51:06;6.63;;;1.33;;
18917;SDS011;9591;52.742;13.650;2022-09-17T12:54:06;3.03;;;1.10;;
18917;SDS011;9591;52.742;13.650;2022-09-17T12:57:04;2.23;;;1.00;;
18917;SDS011;9591;52.742;13.650;2022-09-17T12:59:59;4.03;;;1.10;;
18917;SDS011;9591;52.742;13.650;2022-09-17T13:02:54;5.53;;;1.30;;
18917;SDS011;9591;52.742;13.650;2022-09-17T13:09:33;4.63;;;0.70;;
18917;SDS011;9591;52.742;13.650;2022-09-17T13:12:46;5.23;;;0.80;;
18917;SDS011;9591;52.742;13.650;2022-09-17T13:15:44;2.37;;;1.07;;
18917;SDS011;9591;52.742;13.650;2022-09-17T13:18:38;2.07;;;0.73;;
18917;SDS011;9591;52.742;13.650;2022-09-17T13:21:51;4.57;;;0.93;;
18917;SDS011;9591;52.742;13.650;2022-09-17T13:24:39;6.47;;;1.27;;
18917;SDS011;9591;52.742;13.650;2022-09-17T13:27:31;3.30;;;0.90;;
18917;SDS011;9591;52.742;13.650;2022-09-17T13:30:21;1.70;;;0.70;;
18917;SDS011;9591;52.742;13.650;2022-09-17T13:33:07;4.83;;;1.00;;
18917;SDS011;9591;52.742;13.650;2022-09-17T13:35:54;5.87;;;0.90;;
18917;SDS011;9591;52.742;13.650;2022-09-17T13:38:41;2.27;;;0.70;;
18917;SDS011;9591;52.742;13.650;2022-09-17T13:41:28;2.27;;;0.97;;
18917;SDS011;9591;52.742;13.650;2022-09-17T13:44:17;1.10;;;0.80;;
18917;SDS011;9591;52.742;13.650;2022-09-17T13:47:14;4.20;;;1.00;;
18917;SDS011;9591;52.742;13.650;2022-09-17T13:50:04;3.23;;;0.80;;
18917;SDS011;9591;52.742;13.650;2022-09-17T13:52:54;4.80;;;1.43;;
18917;SDS011;9591;52.742;13.650;2022-09-17T13:55:44;8.00;;;1.07;;
18917;SDS011;9591;52.742;13.650;2022-09-17T13:58:34;5.27;;;1.20;;
18917;SDS011;9591;52.742;13.650;2022-09-17T14:04:47;6.37;;;0.93;;
18917;SDS011;9591;52.742;13.650;2022-09-17T14:07:43;4.83;;;1.10;;
18917;SDS011;9591;52.742;13.650;2022-09-17T14:10:34;5.40;;;0.77;;
18917;SDS011;9591;52.742;13.650;2022-09-17T14:19:40;3.03;;;0.80;;
18917;SDS011;9591;52.742;13.650;2022-09-17T14:22:37;1.07;;;0.77;;
18917;SDS011;9591;52.742;13.650;2022-09-17T14:25:30;5.43;;;0.87;;
18917;SDS011;9591;52.742;13.650;2022-09-17T14:28:25;5.43;;;1.10;;
18917;SDS011;9591;52.742;13.650;2022-09-17T14:31:20;2.43;;;0.80;;
18917;SDS011;9591;52.742;13.650;2022-09-17T14:34:14;4.00;;;1.03;;
18917;SDS011;9591;52.742;13.650;2022-09-17T14:37:05;2.97;;;0.93;;
18917;SDS011;9591;52.742;13.650;2022-09-17T14:39:58;4.87;;;1.03;;
18917;SDS011;9591;52.742;13.650;2022-09-17T14:42:45;2.97;;;0.90;;
18917;SDS011;9591;52.742;13.650;2022-09-17T14:45:35;5.57;;;1.20;;
18917;SDS011;9591;52.742;13.650;2022-09-17T14:48:29;4.93;;;1.07;;
18917;SDS011;9591;52.742;13.650;2022-09-17T14:51:25;2.80;;;1.30;;
18917;SDS011;9591;52.742;13.650;2022-09-17T14:54:21;5.57;;;1.87;;
18917;SDS011;9591;52.742;13.650;2022-09-17T14:57:16;1.70;;;1.00;;
18917;SDS011;9591;52.742;13.650;2022-09-17T15:00:15;5.50;;;1.37;;
18917;SDS011;9591;52.742;13.650;2022-09-17T15:03:18;5.70;;;1.13;;
18917;SDS011;9591;52.742;13.650;2022-09-17T15:06:12;1.63;;;0.90;;
18917;SDS011;9591;52.742;13.650;2022-09-17T15:09:10;4.10;;;1.00;;
18917;SDS011;9591;52.742;13.650;2022-09-17T15:12:00;1.57;;;0.87;;
18917;SDS011;9591;52.742;13.650;2022-09-17T15:14:50;3.13;;;0.97;;
18917;SDS011;9591;52.742;13.650;2022-09-17T15:17:40;4.30;;;0.80;;
18917;SDS011;9591;52.742;13.650;2022-09-17T15:20:28;3.50;;;0.60;;
18917;SDS011;9591;52.742;13.650;2022-09-17T15:23:17;1.83;;;0.67;;
18917;SDS011;9591;52.742;13.650;2022-09-17T15:26:08;4.47;;;0.80;;
18917;SDS011;9591;52.742;13.650;2022-09-17T15:28:58;8.87;;;1.10;;
18917;SDS011;9591;52.742;13.650;2022-09-17T15:31:48;0.80;;;0.63;;
18917;SDS011;9591;52.742;13.650;2022-09-17T15:34:35;4.03;;;0.70;;
18917;SDS011;9591;52.742;13.650;2022-09-17T15:37:24;1.53;;;0.50;;
18917;SDS011;9591;52.742;13.650;2022-09-17T15:40:12;6.07;;;0.70;;
18917;SDS011;9591;52.742;13.650;2022-09-17T15:43:02;1.93;;;0.87;;
18917;SDS011;9591;52.742;13.650;2022-09-17T15:45:51;2.47;;;1.33;;
18917;SDS011;9591;52.742;13.650;2022-09-17T15:48:39;1.07;;;0.97;;
18917;SDS011;9591;52.742;13.650;2022-09-17T15:51:27;9.43;;;0.90;;
18917;SDS011;9591;52.742;13.650;2022-09-17T15:54:28;2.47;;;0.60;;
18917;SDS011;9591;52.742;13.650;2022-09-17T15:57:16;0.60;;;0.50;;
18917;SDS011;9591;52.742;13.650;2022-09-17T16:00:07;1.60;;;0.70;;
18917;SDS011;9591;52.742;13.650;2022-09-17T16:03:01;4.10;;;0.70;;
18917;SDS011;9591;52.742;13.650;2022-09-17T16:06:38;0.60;;;0.53;;
18917;SDS011;9591;52.742;13.650;2022-09-17T16:09:35;3.67;;;0.73;;
18917;SDS011;9591;52.742;13.650;2022-09-17T16:12:31;1.10;;;0.73;;
18917;SDS011;9591;52.742;13.650;2022-09-17T16:15:17;1.40;;;0.43;;
18917;SDS011;9591;52.742;13.650;2022-09-17T16:18:05;0.90;;;0.53;;
18917;SDS011;9591;52.742;13.650;2022-09-17T16:20:57;0.53;;;0.53;;
18917;SDS011;9591;52.742;13.650;2022-09-17T16:23:45;4.43;;;0.80;;
18917;SDS011;9591;52.742;13.650;2022-09-17T16:26:32;0.80;;;0.70;;
18917;SDS011;9591;52.742;13.650;2022-09-17T16:29:20;3.83;;;0.70;;
18917;SDS011;9591;52.742;13.650;2022-09-17T16:32:07;1.70;;;0.70;;
18917;SDS011;9591;52.742;13.650;2022-09-17T16:34:54;0.57;;;0.57;;
18917;SDS011;9591;52.742;13.650;2022-09-17T16:37:41;1.43;;;0.60;;
18917;SDS011;9591;52.742;13.650;2022-09-17T16:40:30;0.60;;;0.60;;
18917;SDS011;9591;52.742;13.650;2022-09-17T16:43:19;0.67;;;0.67;;
18917;SDS011;9591;52.742;13.650;2022-09-17T16:46:06;2.10;;;0.77;;
18917;SDS011;9591;52.742;13.650;2022-09-17T16:48:54;4.27;;;0.50;;
18917;SDS011;9591;52.742;13.650;2022-09-17T16:51:41;0.80;;;0.80;;
18917;SDS011;9591;52.742;13.650;2022-09-17T16:54:28;1.50;;;0.60;;
18917;SDS011;9591;52.742;13.650;2022-09-17T16:57:16;1.20;;;0.63;;
18917;SDS011;9591;52.742;13.650;2022-09-17T17:00:03;1.17;;;0.70;;
18917;SDS011;9591;52.742;13.650;2022-09-17T17:02:51;1.20;;;0.80;;
18917;SDS011;9591;52.742;13.650;2022-09-17T17:05:39;1.73;;;0.90;;
18917;SDS011;9591;52.742;13.650;2022-09-17T17:08:27;5.27;;;0.87;;
18917;SDS011;9591;52.742;13.650;2022-09-17T17:11:16;4.50;;;0.70;;
18917;SDS011;9591;52.742;13.650;2022-09-17T17:14:04;2.93;;;0.73;;
18917;SDS011;9591;52.742;13.650;2022-09-17T17:16:55;1.00;;;0.70;;
18917;SDS011;9591;52.742;13.650;2022-09-17T17:19:42;1.97;;;0.83;;
18917;SDS011;9591;52.742;13.650;2022-09-17T17:22:29;2.47;;;0.80;;